Airport ID:CYBF
Update Time (UTC):19/04/2024 02:33
Wind Speed (Knots):11
Wind Direction (Magnetic):010
Temperature (°C):-1.1
Dew Point (°C):-9.9
Humidity (%):52
Altimeter (inHg):30.49
Density Altitude (Feet):\\\\
Visibility (Miles):6
Clouds (Hundreds of feet):BKN050 BKN070 OVC080
Present Weather:
METAR:METAR CYBF 190230Z AUTO 03014KT 10SM FEW040 BKN050 OVC070 M01/M10 A3048=

The data displayed is for advisory purposes only and is not to be used for flight planning or operations.

This page is not automatically refreshed. Reload the page to see current data.